Time;durP1;ratioP1;P1;durP2;ratioP2;P2;SDS_P1;SDS_P2;PMS_P1;PMS_P2;Temp;Humidity;BMP_temperature;BMP_pressure;BME280_temperature;BME280_humidity;BME280_pressure;Samples;Min_cycle;Max_cycle;Signal;HPM_P1;HPM_P2
2023/05/04 00:02:25;;;;;;;6.80;4.93;;;;;;;;;;5029921;28;20225;-29
2023/05/04 00:04:54;;;;;;;4.67;4.00;;;;;;;;;;5026821;28;20222;-28
2023/05/04 00:07:21;;;;;;;4.97;3.87;;;;;;;;;;5052499;28;20220;-30
2023/05/04 00:09:48;;;;;;;6.10;4.10;;;;;;;;;;5064987;28;20776;-28
2023/05/04 00:12:15;;;;;;;3.77;3.43;;;;;;;;;;5053398;28;20281;-25
2023/05/04 00:14:43;;;;;;;4.03;3.63;;;;;;;;;;5032823;28;20237;-29
2023/05/04 00:17:11;;;;;;;7.07;3.90;;;;;;;;;;5024223;28;20204;-31
2023/05/04 00:19:40;;;;;;;7.73;4.40;;;;;;;;;;5032660;28;20339;-27
2023/05/04 00:22:09;;;;;;;4.90;3.93;;;;;;;;;;5049023;28;20216;-30
2023/05/04 00:24:36;;;;;;;7.73;3.67;;;;;;;;;;5048825;28;20244;-26
2023/05/04 00:27:03;;;;;;;4.97;3.50;;;;;;;;;;5043919;28;20206;-32
2023/05/04 00:29:30;;;;;;;8.13;4.83;;;;;;;;;;5045118;28;20202;-29
2023/05/04 00:31:58;;;;;;;4.50;3.83;;;;;;;;;;5036207;28;20661;-28
2023/05/04 00:34:25;;;;;;;4.30;3.90;;;;;;;;;;5037790;28;20226;-28
2023/05/04 00:36:52;;;;;;;4.80;3.90;;;;;;;;;;5047557;28;20201;-29
2023/05/04 00:39:20;;;;;;;5.00;3.37;;;;;;;;;;5063928;28;20201;-31
2023/05/04 00:41:47;;;;;;;6.10;4.23;;;;;;;;;;5062674;28;20209;-28
2023/05/04 00:44:15;;;;;;;5.30;3.90;;;;;;;;;;5032707;28;20229;-28
2023/05/04 00:46:45;;;;;;;5.13;3.77;;;;;;;;;;5046626;28;20263;-30
2023/05/04 00:49:12;;;;;;;5.87;4.37;;;;;;;;;;5038399;28;20229;-31
2023/05/04 00:51:40;;;;;;;4.57;4.10;;;;;;;;;;5038531;28;20212;-29
2023/05/04 00:54:07;;;;;;;5.93;3.90;;;;;;;;;;5028533;28;20230;-29
2023/05/04 00:56:39;;;;;;;4.00;3.60;;;;;;;;;;5035326;28;20210;-28
2023/05/04 00:59:07;;;;;;;6.23;3.80;;;;;;;;;;5045311;28;20238;-28
2023/05/04 01:01:34;;;;;;;3.90;3.50;;;;;;;;;;5039515;28;20296;-28
2023/05/04 01:04:01;;;;;;;4.97;4.27;;;;;;;;;;5038964;28;20237;-29
2023/05/04 01:06:32;;;;;;;6.87;3.60;;;;;;;;;;5045616;28;20302;-30
2023/05/04 01:09:03;;;;;;;4.00;3.60;;;;;;;;;;5047977;28;20215;-27
2023/05/04 01:11:34;;;;;;;4.27;3.63;;;;;;;;;;5041401;28;20217;-27
2023/05/04 01:14:03;;;;;;;4.37;3.73;;;;;;;;;;5043928;28;20424;-30
2023/05/04 01:16:30;;;;;;;3.33;3.00;;;;;;;;;;5028247;28;20202;-28
2023/05/04 01:18:57;;;;;;;4.27;3.80;;;;;;;;;;5029348;28;20216;-29
2023/05/04 01:21:24;;;;;;;5.83;4.20;;;;;;;;;;5038614;28;20309;-30
2023/05/04 01:23:53;;;;;;;3.83;3.43;;;;;;;;;;5047552;28;20228;-27
2023/05/04 01:26:25;;;;;;;7.37;4.60;;;;;;;;;;5048594;28;20406;-29
2023/05/04 01:28:56;;;;;;;4.53;3.67;;;;;;;;;;5034410;28;20233;-29
2023/05/04 01:31:26;;;;;;;5.40;4.00;;;;;;;;;;5033823;28;20201;-29
2023/05/04 01:33:54;;;;;;;5.07;4.03;;;;;;;;;;5034566;28;20694;-29
2023/05/04 01:36:22;;;;;;;5.07;4.07;;;;;;;;;;5045775;28;20723;-29
2023/05/04 01:38:49;;;;;;;5.80;4.47;;;;;;;;;;5059328;28;20198;-30
2023/05/04 01:41:18;;;;;;;6.47;3.57;;;;;;;;;;5068985;28;20205;-29
2023/05/04 01:43:45;;;;;;;6.03;4.03;;;;;;;;;;5049030;28;20226;-30
2023/05/04 01:46:12;;;;;;;5.37;3.97;;;;;;;;;;5045533;28;20216;-27
2023/05/04 01:48:39;;;;;;;3.63;3.33;;;;;;;;;;5032589;28;20215;-30
2023/05/04 01:51:06;;;;;;;4.07;3.77;;;;;;;;;;5051017;28;20300;-28
2023/05/04 01:53:33;;;;;;;4.80;4.03;;;;;;;;;;5051194;28;20237;-28
2023/05/04 01:56:01;;;;;;;5.47;4.30;;;;;;;;;;5049546;28;20204;-29
2023/05/04 01:58:29;;;;;;;6.43;3.90;;;;;;;;;;5045220;28;20220;-26
2023/05/04 02:00:58;;;;;;;5.07;4.43;;;;;;;;;;5033987;28;20209;-27
2023/05/04 02:03:25;;;;;;;5.47;4.47;;;;;;;;;;5031182;28;20218;-27
2023/05/04 02:05:52;;;;;;;5.77;4.13;;;;;;;;;;5043545;28;20222;-29
2023/05/04 02:08:20;;;;;;;5.00;4.50;;;;;;;;;;5052062;28;20216;-28
2023/05/04 02:10:47;;;;;;;6.43;4.37;;;;;;;;;;5047673;28;20206;-27
2023/05/04 02:13:14;;;;;;;5.27;4.47;;;;;;;;;;5042857;28;20235;-29
2023/05/04 02:15:43;;;;;;;5.97;4.70;;;;;;;;;;5029749;28;20260;-26
2023/05/04 02:18:10;;;;;;;4.67;4.13;;;;;;;;;;5035259;28;20213;-28
2023/05/04 02:20:37;;;;;;;6.20;4.63;;;;;;;;;;5027476;28;20211;-27
2023/05/04 02:23:04;;;;;;;6.03;4.97;;;;;;;;;;5040511;28;20205;-26
2023/05/04 02:25:31;;;;;;;6.80;4.40;;;;;;;;;;5048664;28;20274;-29
2023/05/04 02:27:58;;;;;;;4.57;4.07;;;;;;;;;;5039353;28;20208;-27
2023/05/04 02:30:26;;;;;;;4.47;4.03;;;;;;;;;;5038999;28;20209;-29
2023/05/04 02:32:55;;;;;;;6.57;5.73;;;;;;;;;;5046387;28;20320;-28
2023/05/04 02:35:22;;;;;;;6.03;4.00;;;;;;;;;;5026609;28;20206;-28
2023/05/04 02:37:49;;;;;;;6.67;4.77;;;;;;;;;;5046098;28;20205;-27
2023/05/04 02:40:16;;;;;;;4.80;4.07;;;;;;;;;;5047121;28;20209;-27
2023/05/04 02:42:43;;;;;;;6.23;5.07;;;;;;;;;;5043325;28;20208;-28
2023/05/04 02:45:11;;;;;;;8.67;4.73;;;;;;;;;;5039910;28;20233;-28
2023/05/04 02:47:38;;;;;;;5.17;4.30;;;;;;;;;;5039811;28;20211;-29
2023/05/04 02:50:07;;;;;;;6.47;4.77;;;;;;;;;;5044909;28;20512;-25
2023/05/04 02:52:35;;;;;;;5.17;4.70;;;;;;;;;;5045811;28;20204;-26
2023/05/04 02:55:02;;;;;;;4.87;4.43;;;;;;;;;;5044465;28;20316;-30
2023/05/04 02:57:29;;;;;;;6.20;5.20;;;;;;;;;;5037684;28;20212;-30
2023/05/04 02:59:56;;;;;;;7.40;5.13;;;;;;;;;;5029162;28;20212;-28
2023/05/04 03:02:23;;;;;;;5.13;4.37;;;;;;;;;;5042299;28;20222;-28
2023/05/04 03:04:50;;;;;;;4.80;4.20;;;;;;;;;;5040601;28;20229;-29
2023/05/04 03:07:19;;;;;;;6.63;4.77;;;;;;;;;;5045622;28;20217;-27
2023/05/04 03:09:46;;;;;;;7.93;4.37;;;;;;;;;;5046174;28;20201;-31
2023/05/04 03:12:13;;;;;;;7.10;4.83;;;;;;;;;;5030748;28;20209;-30
2023/05/04 03:14:40;;;;;;;5.07;4.30;;;;;;;;;;5044151;28;20244;-27
2023/05/04 03:17:07;;;;;;;5.20;4.70;;;;;;;;;;5046222;28;20250;-27
2023/05/04 03:19:35;;;;;;;8.47;5.97;;;;;;;;;;5036750;28;20205;-26
2023/05/04 03:22:02;;;;;;;6.87;4.93;;;;;;;;;;5044788;28;20204;-27
2023/05/04 03:24:30;;;;;;;5.83;4.87;;;;;;;;;;5053878;28;20225;-29
2023/05/04 03:26:57;;;;;;;6.60;5.47;;;;;;;;;;5040639;28;20223;-27
2023/05/04 03:29:25;;;;;;;6.67;5.20;;;;;;;;;;5034627;28;20210;-30
2023/05/04 03:31:52;;;;;;;5.13;4.60;;;;;;;;;;5033820;28;20209;-26
2023/05/04 03:34:21;;;;;;;8.20;5.60;;;;;;;;;;5035425;28;20229;-27
2023/05/04 03:36:48;;;;;;;5.73;5.13;;;;;;;;;;5043475;28;20233;-27
2023/05/04 03:39:16;;;;;;;5.13;4.63;;;;;;;;;;5051892;28;20208;-26
2023/05/04 03:41:45;;;;;;;6.00;5.13;;;;;;;;;;5043299;28;20294;-28
2023/05/04 03:44:12;;;;;;;7.47;5.40;;;;;;;;;;5040266;28;20228;-27
2023/05/04 03:46:39;;;;;;;5.43;4.67;;;;;;;;;;5035828;28;20226;-27
2023/05/04 03:49:06;;;;;;;6.97;5.03;;;;;;;;;;5027937;28;20209;-28
2023/05/04 03:51:33;;;;;;;6.13;5.30;;;;;;;;;;5038934;28;20210;-30
2023/05/04 03:54:01;;;;;;;7.17;5.90;;;;;;;;;;5053141;28;20220;-30
2023/05/04 03:56:28;;;;;;;7.07;5.17;;;;;;;;;;5046080;28;20212;-29
2023/05/04 03:58:57;;;;;;;5.93;5.33;;;;;;;;;;5037689;28;20210;-27
2023/05/04 04:01:25;;;;;;;5.83;4.90;;;;;;;;;;5033256;28;20205;-25
2023/05/04 04:03:52;;;;;;;5.87;4.90;;;;;;;;;;5033814;28;20231;-29
2023/05/04 04:06:19;;;;;;;6.73;4.60;;;;;;;;;;5034444;28;20328;-27
2023/05/04 04:08:46;;;;;;;5.67;4.70;;;;;;;;;;5039516;28;20307;-30
2023/05/04 04:11:14;;;;;;;6.50;4.73;;;;;;;;;;5054878;28;20205;-27
2023/05/04 04:13:41;;;;;;;8.47;5.27;;;;;;;;;;5034329;28;20223;-28
2023/05/04 04:16:14;;;;;;;5.53;4.93;;;;;;;;;;5043503;28;20205;-28
2023/05/04 04:18:46;;;;;;;6.57;4.57;;;;;;;;;;5033585;28;20229;-29
2023/05/04 04:21:27;;;;;;;5.87;4.70;;;;;;;;;;5035202;28;20209;-29
2023/05/04 04:24:02;;;;;;;5.43;4.93;;;;;;;;;;5041315;28;20226;-25
2023/05/04 04:26:29;;;;;;;4.57;4.13;;;;;;;;;;5038905;28;20237;-28
2023/05/04 04:28:56;;;;;;;5.80;4.27;;;;;;;;;;5036960;28;20215;-28
2023/05/04 04:31:23;;;;;;;5.73;4.83;;;;;;;;;;5044643;28;20297;-28
2023/05/04 04:33:52;;;;;;;5.53;4.30;;;;;;;;;;5039335;28;20229;-29
2023/05/04 04:36:19;;;;;;;10.37;5.27;;;;;;;;;;5035523;28;20212;-29
2023/05/04 04:38:46;;;;;;;5.67;4.80;;;;;;;;;;5030470;28;20724;-27
2023/05/04 04:41:14;;;;;;;5.87;4.57;;;;;;;;;;5029589;28;20207;-28
2023/05/04 04:43:41;;;;;;;5.47;4.70;;;;;;;;;;5040653;28;20233;-29
2023/05/04 04:46:09;;;;;;;5.43;4.90;;;;;;;;;;5048627;28;20237;-30
2023/05/04 04:48:36;;;;;;;7.03;4.77;;;;;;;;;;5040969;28;20213;-28
2023/05/04 04:51:10;;;;;;;10.00;5.47;;;;;;;;;;5032838;28;20214;-24
2023/05/04 04:53:37;;;;;;;5.67;5.07;;;;;;;;;;5036762;28;20244;-27
2023/05/04 04:56:06;;;;;;;7.53;5.30;;;;;;;;;;5029560;28;20213;-28
2023/05/04 04:58:33;;;;;;;6.60;5.17;;;;;;;;;;5037319;28;20295;-27
2023/05/04 05:01:01;;;;;;;5.20;4.70;;;;;;;;;;5037688;28;20204;-27
2023/05/04 05:03:28;;;;;;;6.60;4.97;;;;;;;;;;5034484;28;20229;-25
2023/05/04 05:05:55;;;;;;;7.03;5.40;;;;;;;;;;5032795;28;20228;-27
2023/05/04 05:08:24;;;;;;;5.97;4.90;;;;;;;;;;5042322;28;20214;-27
2023/05/04 05:10:51;;;;;;;7.87;5.40;;;;;;;;;;5051727;28;20215;-29
2023/05/04 05:13:18;;;;;;;7.53;5.73;;;;;;;;;;5044333;28;20223;-28
2023/05/04 05:15:45;;;;;;;11.40;5.93;;;;;;;;;;5037861;28;20199;-26
2023/05/04 05:18:14;;;;;;;8.03;5.77;;;;;;;;;;5044279;28;20219;-28
2023/05/04 05:20:41;;;;;;;7.23;5.90;;;;;;;;;;5034482;28;20227;-27
2023/05/04 05:23:08;;;;;;;8.10;5.40;;;;;;;;;;5038777;28;20291;-28
2023/05/04 05:25:37;;;;;;;7.20;5.90;;;;;;;;;;5038506;28;20225;-27
2023/05/04 05:28:04;;;;;;;6.13;5.40;;;;;;;;;;5048412;28;20207;-28
2023/05/04 05:30:31;;;;;;;6.10;5.17;;;;;;;;;;5034834;28;20296;-29
2023/05/04 05:32:58;;;;;;;7.73;5.73;;;;;;;;;;5046669;28;20214;-28
2023/05/04 05:35:25;;;;;;;9.20;6.70;;;;;;;;;;5043825;28;20205;-27
2023/05/04 05:37:52;;;;;;;8.23;6.30;;;;;;;;;;5047945;28;20196;-26
2023/05/04 05:40:21;;;;;;;7.80;6.77;;;;;;;;;;5059676;28;20216;-30
2023/05/04 05:42:49;;;;;;;6.57;5.87;;;;;;;;;;5044541;28;20208;-27
2023/05/04 05:45:18;;;;;;;14.73;13.40;;;;;;;;;;5042129;28;20203;-26
2023/05/04 05:47:45;;;;;;;24.93;22.77;;;;;;;;;;5043868;28;20210;-28
2023/05/04 05:50:13;;;;;;;9.63;8.37;;;;;;;;;;5054065;28;20205;-26
2023/05/04 05:52:40;;;;;;;10.97;9.60;;;;;;;;;;5047156;28;20209;-28
2023/05/04 05:55:08;;;;;;;14.27;11.30;;;;;;;;;;5052000;28;20225;-28
2023/05/04 05:57:35;;;;;;;11.07;8.03;;;;;;;;;;5040072;28;20217;-30
2023/05/04 06:00:05;;;;;;;11.80;10.47;;;;;;;;;;5049835;28;20204;-26
2023/05/04 06:02:32;;;;;;;11.87;10.67;;;;;;;;;;5051260;28;20210;-25
2023/05/04 06:04:59;;;;;;;12.37;11.07;;;;;;;;;;5052436;28;20225;-25
2023/05/04 06:07:26;;;;;;;14.10;11.77;;;;;;;;;;5052499;28;20217;-27
2023/05/04 06:09:53;;;;;;;14.63;13.23;;;;;;;;;;5042850;28;20194;-26
2023/05/04 06:12:21;;;;;;;14.97;13.63;;;;;;;;;;5041053;28;20210;-27
2023/05/04 06:14:48;;;;;;;11.23;9.73;;;;;;;;;;5048718;28;20225;-29
2023/05/04 06:17:17;;;;;;;10.37;9.27;;;;;;;;;;5050045;28;20212;-27
2023/05/04 06:19:46;;;;;;;11.10;9.17;;;;;;;;;;5038799;28;20207;-27
2023/05/04 06:22:14;;;;;;;11.90;8.90;;;;;;;;;;5049091;28;20206;-27
2023/05/04 06:24:41;;;;;;;11.77;9.07;;;;;;;;;;5047990;28;20268;-27
2023/05/04 06:27:08;;;;;;;10.20;8.57;;;;;;;;;;5045296;28;20334;-25
2023/05/04 06:29:37;;;;;;;14.00;8.80;;;;;;;;;;5036656;28;20210;-26
2023/05/04 06:32:04;;;;;;;12.50;11.30;;;;;;;;;;5053597;28;20208;-26
2023/05/04 06:34:32;;;;;;;10.60;9.10;;;;;;;;;;5041022;28;20524;-26
2023/05/04 06:36:59;;;;;;;10.50;8.87;;;;;;;;;;5048295;28;20198;-26
2023/05/04 06:39:26;;;;;;;9.80;8.80;;;;;;;;;;5060950;28;20206;-30
2023/05/04 06:41:54;;;;;;;12.47;11.27;;;;;;;;;;5047101;28;20213;-29
2023/05/04 06:44:21;;;;;;;9.63;8.63;;;;;;;;;;5045592;28;20226;-28
2023/05/04 06:46:50;;;;;;;9.60;8.60;;;;;;;;;;5043873;28;20239;-27
2023/05/04 06:49:18;;;;;;;10.40;8.60;;;;;;;;;;5038067;28;20199;-27
2023/05/04 06:51:46;;;;;;;11.60;8.40;;;;;;;;;;5035518;28;20213;-29
2023/05/04 06:54:13;;;;;;;8.70;7.63;;;;;;;;;;5037234;28;20218;-26
2023/05/04 06:56:41;;;;;;;11.03;8.10;;;;;;;;;;5047123;28;20279;-26
2023/05/04 06:59:08;;;;;;;10.60;7.73;;;;;;;;;;5053108;28;20218;-29
2023/05/04 07:01:36;;;;;;;11.33;8.27;;;;;;;;;;5043641;28;20201;-27
2023/05/04 07:04:03;;;;;;;10.70;8.10;;;;;;;;;;5039956;28;20270;-27
2023/05/04 07:06:31;;;;;;;11.13;8.10;;;;;;;;;;5047613;28;20225;-29
2023/05/04 07:09:00;;;;;;;9.53;8.50;;;;;;;;;;5048939;28;20213;-29
2023/05/04 07:11:27;;;;;;;10.27;8.10;;;;;;;;;;5040020;28;20212;-29
2023/05/04 07:13:54;;;;;;;10.13;7.20;;;;;;;;;;5046436;28;20227;-27
2023/05/04 07:16:21;;;;;;;8.23;7.43;;;;;;;;;;5050382;28;20201;-27
2023/05/04 07:18:49;;;;;;;8.30;7.50;;;;;;;;;;5040388;28;20251;-28
2023/05/04 07:21:16;;;;;;;9.93;7.37;;;;;;;;;;5034155;28;20209;-28
2023/05/04 07:23:43;;;;;;;7.63;6.47;;;;;;;;;;5045254;28;20215;-29
2023/05/04 07:26:12;;;;;;;8.10;7.30;;;;;;;;;;5045453;28;20233;-27
2023/05/04 07:28:42;;;;;;;9.47;7.33;;;;;;;;;;5047110;28;20212;-28
2023/05/04 07:31:09;;;;;;;8.50;7.17;;;;;;;;;;5046113;28;20204;-29
2023/05/04 07:33:36;;;;;;;10.20;7.37;;;;;;;;;;5036238;28;20235;-32
2023/05/04 07:36:03;;;;;;;8.03;6.40;;;;;;;;;;5050302;28;20231;-30
2023/05/04 07:38:31;;;;;;;7.57;6.80;;;;;;;;;;5046774;28;20204;-28
2023/05/04 07:40:58;;;;;;;7.23;5.90;;;;;;;;;;5043680;28;20224;-30
2023/05/04 07:43:26;;;;;;;10.40;6.03;;;;;;;;;;5034926;28;20233;-29
2023/05/04 07:45:54;;;;;;;7.37;6.00;;;;;;;;;;5043104;28;20204;-30
2023/05/04 07:48:21;;;;;;;7.53;6.30;;;;;;;;;;5043771;28;20221;-30
2023/05/04 07:50:49;;;;;;;7.10;6.40;;;;;;;;;;5046173;28;20228;-27
2023/05/04 07:53:16;;;;;;;6.13;5.53;;;;;;;;;;5041817;28;20250;-30
2023/05/04 07:55:43;;;;;;;5.73;5.17;;;;;;;;;;5034986;28;20210;-28
2023/05/04 07:58:10;;;;;;;8.30;5.57;;;;;;;;;;5038608;28;20222;-29
2023/05/04 08:00:39;;;;;;;10.17;6.30;;;;;;;;;;5043284;28;20432;-28
2023/05/04 08:03:06;;;;;;;6.00;5.40;;;;;;;;;;5032698;28;20427;-31
2023/05/04 08:05:33;;;;;;;6.20;5.60;;;;;;;;;;5044051;28;20216;-28
2023/05/04 08:08:00;;;;;;;6.63;5.30;;;;;;;;;;5036713;28;20595;-29
2023/05/04 08:10:27;;;;;;;7.33;4.67;;;;;;;;;;5042144;28;20209;-29
2023/05/04 08:12:55;;;;;;;10.30;5.37;;;;;;;;;;5046039;28;20204;-29
2023/05/04 08:15:22;;;;;;;5.73;4.83;;;;;;;;;;5039215;28;20199;-29
2023/05/04 08:17:51;;;;;;;7.47;5.20;;;;;;;;;;5042629;28;20205;-30
2023/05/04 08:20:18;;;;;;;5.03;4.63;;;;;;;;;;5043557;28;20206;-28
2023/05/04 08:22:46;;;;;;;6.03;4.70;;;;;;;;;;5037180;28;20209;-31
2023/05/04 08:25:13;;;;;;;5.37;4.40;;;;;;;;;;5041454;28;20221;-28
2023/05/04 08:27:40;;;;;;;6.27;4.73;;;;;;;;;;5050983;28;20237;-27
2023/05/04 08:30:08;;;;;;;5.40;4.67;;;;;;;;;;5054465;28;20213;-28
2023/05/04 08:32:35;;;;;;;5.90;4.40;;;;;;;;;;5038312;28;20205;-32
2023/05/04 08:35:04;;;;;;;4.90;4.43;;;;;;;;;;5041108;28;20867;-28
2023/05/04 08:37:31;;;;;;;5.43;4.90;;;;;;;;;;5035117;28;20202;-29
2023/05/04 08:39:58;;;;;;;4.60;4.13;;;;;;;;;;5043003;28;20206;-28
2023/05/04 08:42:29;;;;;;;5.07;4.17;;;;;;;;;;5043870;28;20241;-28
2023/05/04 08:44:57;;;;;;;3.60;3.30;;;;;;;;;;5045005;28;20225;-29
2023/05/04 08:47:24;;;;;;;6.40;3.87;;;;;;;;;;5045354;28;20561;-31
2023/05/04 08:49:52;;;;;;;4.87;3.40;;;;;;;;;;5045487;28;20668;-29
2023/05/04 08:52:22;;;;;;;3.40;3.10;;;;;;;;;;5046840;28;20205;-30
2023/05/04 08:54:49;;;;;;;3.87;3.57;;;;;;;;;;5056028;28;20231;-28
2023/05/04 08:57:17;;;;;;;3.63;3.33;;;;;;;;;;5050872;28;20201;-29
2023/05/04 08:59:45;;;;;;;4.30;3.30;;;;;;;;;;5054980;28;20305;-31
2023/05/04 09:02:14;;;;;;;4.40;3.90;;;;;;;;;;5053744;28;20266;-32
2023/05/04 09:04:41;;;;;;;4.20;3.30;;;;;;;;;;5036280;28;20225;-32
2023/05/04 09:07:08;;;;;;;3.30;3.10;;;;;;;;;;5043482;28;20233;-29
2023/05/04 09:09:37;;;;;;;3.90;3.47;;;;;;;;;;5035550;28;20218;-31
2023/05/04 09:12:04;;;;;;;5.47;3.40;;;;;;;;;;5039409;28;20723;-29
2023/05/04 09:14:35;;;;;;;3.90;3.60;;;;;;;;;;5043114;28;20236;-30
2023/05/04 09:17:02;;;;;;;5.57;3.93;;;;;;;;;;5054505;28;20206;-29
2023/05/04 09:19:33;;;;;;;4.23;3.40;;;;;;;;;;5042499;28;20263;-28
2023/05/04 09:22:00;;;;;;;4.40;3.83;;;;;;;;;;5038927;28;20236;-30
2023/05/04 09:24:28;;;;;;;4.37;3.67;;;;;;;;;;5055242;28;20229;-28
2023/05/04 09:26:56;;;;;;;3.77;3.47;;;;;;;;;;5043885;28;20226;-29
2023/05/04 09:29:24;;;;;;;3.93;3.30;;;;;;;;;;5034432;28;20217;-30
2023/05/04 09:31:52;;;;;;;3.47;3.17;;;;;;;;;;5053850;28;20231;-31
2023/05/04 09:34:21;;;;;;;3.20;3.00;;;;;;;;;;5049559;28;20704;-30
2023/05/04 09:36:59;;;;;;;3.50;3.20;;;;;;;;;;5040549;28;20210;-28
2023/05/04 09:39:26;;;;;;;3.93;3.43;;;;;;;;;;5032288;28;20304;-30
2023/05/04 09:41:54;;;;;;;3.57;3.27;;;;;;;;;;5038618;28;20220;-28
2023/05/04 09:44:23;;;;;;;3.17;2.97;;;;;;;;;;5041956;28;20232;-30
2023/05/04 09:46:55;;;;;;;4.27;3.10;;;;;;;;;;5054698;28;20225;-30
2023/05/04 09:49:31;;;;;;;3.03;2.83;;;;;;;;;;5040472;28;20351;-30
2023/05/04 09:52:00;;;;;;;5.10;3.70;;;;;;;;;;5032933;28;20201;-28
2023/05/04 09:54:31;;;;;;;3.50;3.20;;;;;;;;;;5048963;28;20226;-26
2023/05/04 09:57:03;;;;;;;5.00;3.17;;;;;;;;;;5046025;28;20229;-33
2023/05/04 09:59:32;;;;;;;5.30;3.07;;;;;;;;;;5042334;28;20228;-28
2023/05/04 10:02:00;;;;;;;3.57;3.13;;;;;;;;;;5038164;28;20209;-26
2023/05/04 10:04:27;;;;;;;3.30;2.90;;;;;;;;;;5041952;28;20258;-27
2023/05/04 10:06:54;;;;;;;3.40;3.10;;;;;;;;;;5046721;28;20223;-26
2023/05/04 10:09:22;;;;;;;4.00;3.57;;;;;;;;;;5030866;28;20201;-28
2023/05/04 10:11:49;;;;;;;3.33;3.03;;;;;;;;;;5031163;28;20364;-30
2023/05/04 10:14:16;;;;;;;4.17;3.30;;;;;;;;;;5049412;28;20234;-27
2023/05/04 10:16:50;;;;;;;4.77;3.10;;;;;;;;;;5042386;28;20208;-28
2023/05/04 10:19:36;;;;;;;3.97;3.40;;;;;;;;;;5031349;28;20213;-30
2023/05/04 10:22:17;;;;;;;5.77;3.63;;;;;;;;;;5043274;28;20188;-30
2023/05/04 10:24:56;;;;;;;4.10;3.57;;;;;;;;;;5050005;28;20232;-27
2023/05/04 10:27:37;;;;;;;3.67;3.30;;;;;;;;;;5046004;28;20243;-27
2023/05/04 10:30:05;;;;;;;3.73;3.43;;;;;;;;;;5039969;28;20222;-29
2023/05/04 10:32:38;;;;;;;4.17;3.50;;;;;;;;;;5044481;28;20220;-29
2023/05/04 10:35:06;;;;;;;3.47;3.17;;;;;;;;;;5044076;28;20225;-26
2023/05/04 10:37:33;;;;;;;5.60;3.50;;;;;;;;;;5041738;28;20705;-29
2023/05/04 10:40:00;;;;;;;3.90;3.57;;;;;;;;;;5049368;28;20213;-25
2023/05/04 10:42:28;;;;;;;4.07;3.70;;;;;;;;;;5029752;28;20558;-28
2023/05/04 10:44:55;;;;;;;4.23;3.07;;;;;;;;;;5042253;28;20221;-27
2023/05/04 10:47:31;;;;;;;3.47;3.20;;;;;;;;;;5046711;28;20224;-27
2023/05/04 10:50:03;;;;;;;7.63;3.60;;;;;;;;;;5033501;28;20567;-25
2023/05/04 10:52:32;;;;;;;4.33;3.80;;;;;;;;;;5049245;28;20490;-27
2023/05/04 10:55:00;;;;;;;4.20;3.77;;;;;;;;;;5049709;28;20302;-27
2023/05/04 10:57:29;;;;;;;5.13;3.67;;;;;;;;;;5046634;28;20279;-27
2023/05/04 10:59:57;;;;;;;5.03;4.57;;;;;;;;;;5032608;28;20220;-30
2023/05/04 11:02:24;;;;;;;3.93;3.50;;;;;;;;;;5046324;28;20207;-27
2023/05/04 11:05:03;;;;;;;5.40;4.00;;;;;;;;;;5036441;28;20232;-29
2023/05/04 11:07:34;;;;;;;5.50;3.87;;;;;;;;;;5035363;28;20230;-29
2023/05/04 11:10:02;;;;;;;4.30;3.87;;;;;;;;;;5047248;28;20211;-29
2023/05/04 11:12:29;;;;;;;4.43;3.53;;;;;;;;;;5042373;28;20276;-31
2023/05/04 11:15:04;;;;;;;5.57;4.10;;;;;;;;;;5042488;28;20342;-28
2023/05/04 11:17:31;;;;;;;4.50;4.10;;;;;;;;;;5039697;28;20216;-28
2023/05/04 11:19:59;;;;;;;4.63;4.10;;;;;;;;;;5048243;28;20234;-27
2023/05/04 11:22:28;;;;;;;4.63;3.80;;;;;;;;;;5048568;28;20207;-25
2023/05/04 11:24:56;;;;;;;5.57;4.80;;;;;;;;;;5053441;28;20246;-29
2023/05/04 11:27:23;;;;;;;7.00;4.30;;;;;;;;;;5063128;28;20720;-28
2023/05/04 11:29:55;;;;;;;4.33;3.93;;;;;;;;;;5034840;28;20304;-27
2023/05/04 11:32:22;;;;;;;5.27;4.40;;;;;;;;;;5027193;28;20194;-29
2023/05/04 11:34:50;;;;;;;4.07;3.63;;;;;;;;;;5041529;28;20324;-29
2023/05/04 11:37:17;;;;;;;4.97;3.93;;;;;;;;;;5034091;28;20204;-27
2023/05/04 11:39:45;;;;;;;4.23;3.63;;;;;;;;;;5029787;28;20216;-28
2023/05/04 11:42:12;;;;;;;5.50;5.00;;;;;;;;;;5029948;28;20206;-26
2023/05/04 11:44:40;;;;;;;6.33;4.80;;;;;;;;;;5045703;28;20229;-30
2023/05/04 11:47:08;;;;;;;5.27;3.83;;;;;;;;;;5035780;28;20209;-28
2023/05/04 11:49:35;;;;;;;5.80;4.73;;;;;;;;;;5034976;28;20201;-28
2023/05/04 11:52:06;;;;;;;4.70;4.30;;;;;;;;;;5048772;28;20211;-27
2023/05/04 11:54:33;;;;;;;7.03;5.40;;;;;;;;;;5049341;28;20233;-29
2023/05/04 11:57:02;;;;;;;5.70;4.93;;;;;;;;;;5047601;28;20212;-29
2023/05/04 11:59:30;;;;;;;5.33;4.90;;;;;;;;;;5041017;28;20262;-27
2023/05/04 12:01:58;;;;;;;5.23;4.73;;;;;;;;;;5048599;28;20227;-27
2023/05/04 12:04:31;;;;;;;6.10;4.93;;;;;;;;;;5033808;28;20233;-25
2023/05/04 12:06:58;;;;;;;4.88;4.47;;;;;;;;;;5036479;28;20229;-31
2023/05/04 12:09:25;;;;;;;6.27;5.20;;;;;;;;;;5049550;28;20243;-28
2023/05/04 12:11:56;;;;;;;5.17;4.67;;;;;;;;;;5033284;28;20199;-30
2023/05/04 12:14:27;;;;;;;5.70;4.77;;;;;;;;;;5030119;28;20226;-26
2023/05/04 12:16:55;;;;;;;6.80;4.40;;;;;;;;;;5050667;28;20205;-28
2023/05/04 12:19:22;;;;;;;5.30;4.67;;;;;;;;;;5048178;28;20213;-27
2023/05/04 12:21:50;;;;;;;8.07;6.40;;;;;;;;;;5040483;28;20206;-29
2023/05/04 12:24:18;;;;;;;6.73;4.80;;;;;;;;;;5063905;28;20279;-26
2023/05/04 12:26:45;;;;;;;5.17;4.60;;;;;;;;;;5059974;28;20210;-28
2023/05/04 12:29:13;;;;;;;7.30;6.03;;;;;;;;;;5037987;28;20305;-27
2023/05/04 12:31:41;;;;;;;6.10;5.50;;;;;;;;;;5046653;28;20202;-28
2023/05/04 12:34:08;;;;;;;6.63;5.73;;;;;;;;;;5043955;28;20298;-24
2023/05/04 12:36:35;;;;;;;6.10;5.10;;;;;;;;;;5039591;28;20236;-28
2023/05/04 12:39:03;;;;;;;7.97;5.30;;;;;;;;;;5048264;28;20292;-25
2023/05/04 12:41:31;;;;;;;5.57;4.95;;;;;;;;;;5050170;28;20233;-25
2023/05/04 12:43:58;;;;;;;6.47;5.87;;;;;;;;;;5031295;28;20748;-28
2023/05/04 12:46:25;;;;;;;7.80;5.40;;;;;;;;;;5042425;28;20202;-28
2023/05/04 12:48:54;;;;;;;5.57;5.00;;;;;;;;;;5034285;28;20305;-29
2023/05/04 12:51:21;;;;;;;6.57;5.00;;;;;;;;;;5045162;28;20214;-39
2023/05/04 12:53:48;;;;;;;5.55;5.05;;;;;;;;;;5046618;28;20225;-28
2023/05/04 12:56:15;;;;;;;5.80;5.20;;;;;;;;;;5046650;28;20210;-29
2023/05/04 12:58:43;;;;;;;5.90;4.88;;;;;;;;;;5036403;28;20258;-26
2023/05/04 13:01:10;;;;;;;7.57;5.47;;;;;;;;;;5041990;28;20208;-28
2023/05/04 13:03:37;;;;;;;7.32;5.15;;;;;;;;;;5038124;28;20253;-27
2023/05/04 13:06:06;;;;;;;5.38;4.70;;;;;;;;;;5039354;28;20220;-27
2023/05/04 13:08:33;;;;;;;4.50;4.10;;;;;;;;;;5031023;28;20229;-28
2023/05/04 13:11:00;;;;;;;5.50;4.80;;;;;;;;;;5028689;28;20207;-27
2023/05/04 13:13:28;;;;;;;5.70;4.93;;;;;;;;;;5036105;28;20218;-29
2023/05/04 13:15:55;;;;;;;6.80;5.22;;;;;;;;;;5038595;28;20202;-29
2023/05/04 13:18:25;;;;;;;5.70;5.10;;;;;;;;;;5042949;28;20720;-30
2023/05/04 13:20:53;;;;;;;4.90;4.35;;;;;;;;;;5026162;28;20203;-29
2023/05/04 13:23:22;;;;;;;6.25;4.63;;;;;;;;;;5040426;28;20221;-32
2023/05/04 13:25:50;;;;;;;5.80;5.20;;;;;;;;;;5044915;28;20216;-29
2023/05/04 13:28:17;;;;;;;5.13;4.60;;;;;;;;;;5045026;28;20228;-29
2023/05/04 13:30:44;;;;;;;6.17;5.20;;;;;;;;;;5051053;28;20210;-28
2023/05/04 13:33:12;;;;;;;5.15;4.57;;;;;;;;;;5039187;28;20206;-25
2023/05/04 13:35:39;;;;;;;4.78;4.38;;;;;;;;;;5045868;28;20205;-27
2023/05/04 13:38:06;;;;;;;7.28;4.82;;;;;;;;;;5044476;28;20401;-28
2023/05/04 13:40:34;;;;;;;6.10;4.90;;;;;;;;;;5051442;28;20205;-29
2023/05/04 13:43:01;;;;;;;7.63;4.97;;;;;;;;;;5046271;28;20201;-27
2023/05/04 13:45:29;;;;;;;5.15;4.63;;;;;;;;;;5046308;28;20205;-26
2023/05/04 13:47:56;;;;;;;6.05;4.82;;;;;;;;;;5032152;28;20230;-31
2023/05/04 13:50:24;;;;;;;5.90;4.30;;;;;;;;;;5035820;28;20206;-25
2023/05/04 13:52:51;;;;;;;4.30;4.00;;;;;;;;;;5043173;28;20197;-26
2023/05/04 13:55:19;;;;;;;5.30;3.75;;;;;;;;;;5051000;28;20438;-27
2023/05/04 13:57:47;;;;;;;3.70;3.42;;;;;;;;;;5040819;28;20210;-27
2023/05/04 14:00:15;;;;;;;4.63;3.88;;;;;;;;;;5051053;28;20210;-25
2023/05/04 14:02:42;;;;;;;4.85;4.35;;;;;;;;;;5041740;28;20203;-27
2023/05/04 14:05:10;;;;;;;5.07;4.60;;;;;;;;;;5037546;28;20227;-25
2023/05/04 14:07:37;;;;;;;5.63;4.03;;;;;;;;;;5038309;28;20593;-27
2023/05/04 14:10:05;;;;;;;5.00;4.18;;;;;;;;;;5041312;28;20236;-30
2023/05/04 14:12:32;;;;;;;4.72;3.95;;;;;;;;;;5038361;28;20210;-27
2023/05/04 14:15:01;;;;;;;3.80;3.50;;;;;;;;;;5050182;28;20248;-26
2023/05/04 14:20:04;;;;;;;4.07;3.67;;;;;;;;;;5749896;22;20240;-28
2023/05/04 14:22:31;;;;;;;5.03;3.53;;;;;;;;;;5052308;28;20205;-27
2023/05/04 14:24:58;;;;;;;5.63;3.70;;;;;;;;;;5055311;28;20229;-35
2023/05/04 14:27:26;;;;;;;4.65;3.90;;;;;;;;;;5043429;28;20213;-29
2023/05/04 14:29:53;;;;;;;5.50;3.25;;;;;;;;;;5054101;28;20213;-27
2023/05/04 14:32:22;;;;;;;4.50;3.88;;;;;;;;;;5054563;28;20301;-27
2023/05/04 14:34:50;;;;;;;4.77;3.60;;;;;;;;;;5058109;28;20221;-27
2023/05/04 14:37:17;;;;;;;4.15;3.75;;;;;;;;;;5055245;28;20205;-29
2023/05/04 14:39:46;;;;;;;4.43;3.60;;;;;;;;;;5057052;28;20292;-28
2023/05/04 14:42:13;;;;;;;4.93;3.50;;;;;;;;;;5057174;28;20228;-29
2023/05/04 14:44:40;;;;;;;7.13;3.97;;;;;;;;;;5054167;28;20221;-30
2023/05/04 14:47:07;;;;;;;7.63;4.13;;;;;;;;;;5055493;28;20210;-29
2023/05/04 14:49:41;;;;;;;3.72;3.38;;;;;;;;;;5048349;28;20222;-30